• Join FlightAware (Why Join?)
  • Login
  • US Flag 
05:41PM EDT


 

Airport Tracker/Info


-or-


 

Live Flight TrackerFlight Track Log ✈ N411WC ✈ 24-Sep-2013 ✈ KMHR - KUAO

Flight Track Log - Related Links

Times and Time Zones

All times are in EDT time to prevent confusion due to time zone crossing. See the N411WC flight status page for this flight to view local times or setup timezone preferences in your user account.

Time Position Orientation Groundspeed Altitude Reporting Facility
EDT Latitude Longitude Course Direction KTS MPH feet Rate Location/Type
08:15PM 38.6500 -121.3000 11° North 207 238 4,400  Level Northern Cal TRACON
08:16PM 38.7000 -121.3167 345° North 209 241 6,500 2,100 Climbing Northern Cal TRACON
08:17PM 38.7667 -121.3167 360° North 212 244 8,700 2,040 Climbing Northern Cal TRACON
08:19PM 38.9985 -121.3857 351° North  Level Estimated
08:19PM 38.8689 -121.3431 349° North 215 247 12,600  Level Oakland Center
08:20PM 38.9261 -121.3547 351° North 210 242 14,700 2,040 Climbing Oakland Center
08:21PM 38.9828 -121.3661 351° North 208 239 16,800 2,040 Climbing Oakland Center
08:22PM 39.0375 -121.3772 351° North 200 230 19,000 1,860 Climbing Oakland Center
08:23PM 39.0942 -121.3906 350° North 206 237 20,700 1,800 Climbing Oakland Center
08:24PM 39.1628 -121.4033 352° North 210 242 22,700 1,800 Climbing Oakland Center
08:25PM 39.2206 -121.4156 351° North 210 242 24,400 1,500 Climbing Oakland Center
08:26PM 39.2769 -121.4283 350° North 207 238 25,800 780 Climbing Oakland Center
08:27PM 39.3383 -121.4400 352° North 218 251 26,000 60 Climbing Oakland Center
08:28PM 39.4117 -121.4561 350° North 258 297 26,000  Level Oakland Center
08:29PM 39.4875 -121.4714 351° North 272 313 26,000  Level Oakland Center
08:30PM 39.5653 -121.4853 352° North 279 321 26,000  Level Oakland Center
08:31PM 39.6458 -121.5025 351° North 292 336 26,000  Level Oakland Center
08:32PM 39.7417 -121.5219 351° North 291 335 26,000 600 Level Oakland Center
08:33PM 39.8200 -121.5372 351° North 285 328 27,300 1,140 Climbing Oakland Center
08:34PM 39.8869 -121.5519 350° North 251 289 28,400 780 Climbing Oakland Center
08:35PM 39.9525 -121.5664 350° North 242 278 29,000 240 Climbing Oakland Center
08:36PM 40.0236 -121.5808 351° North 256 295 29,000  Level Oakland Center
08:37PM 40.1011 -121.5983 350° North 280 322 29,000  Level Oakland Center
08:38PM 40.1797 -121.6131 352° North 286 329 29,000  Level Oakland Center
08:39PM 40.2597 -121.6303 351° North 291 335 29,000  Level Oakland Center
08:40PM 40.3583 -121.6511 351° North 301 346 29,000  Level Oakland Center
08:41PM 40.4403 -121.6683 351° North 302 348 29,000 60 Level Oakland Center
08:42PM 40.5222 -121.6861 351° North 302 348 29,200 480 Climbing Oakland Center
08:43PM 40.6022 -121.7039 350° North 295 339 30,000 360 Climbing Oakland Center
08:44PM 40.6808 -121.7194 351° North 290 334 30,000  Level Oakland Center
08:45PM 40.7614 -121.7358 351° North 294 338 30,000  Level Oakland Center
08:46PM 40.8442 -121.7550 350° North 303 349 30,000  Level Oakland Center
08:47PM 40.9297 -121.7739 351° North 311 358 30,000  Level Oakland Center
08:48PM 41.0336 -121.7944 352° North 316 364 30,000  Level Oakland Center
08:49PM 41.1078 -121.8133 349° North 318 366 30,000  Level Oakland Center
08:50PM 41.1947 -121.8333 350° North 317 365 30,000  Level Oakland Center
08:51PM 41.2808 -121.8514 351° North 315 362 30,000  Level Oakland Center
08:53PM 41.3847 -121.8739 351° North 315 362 30,000  Level Oakland Center
08:53PM 41.4197 -121.8808 352° North 316 364 30,000  Level Seattle Center
08:54PM 41.5081 -121.9003 351° North 319 367 30,000  Level Seattle Center
08:55PM 41.5958 -121.9194 351° North 320 368 30,000  Level Seattle Center
08:56PM 41.7017 -121.9428 351° North 320 368 30,000  Level Seattle Center
08:57PM 41.7900 -121.9614 351° North 322 371 30,000  Level Seattle Center
08:58PM 41.8772 -121.9803 351° North 319 367 30,000  Level Seattle Center
08:59PM 41.9658 -121.9997 351° North 321 369 30,000  Level Seattle Center
09:00PM 42.0558 -122.0178 352° North 319 367 30,000  Level Seattle Center
09:01PM 42.1303 -122.0367 349° North 331 381 30,000  Level Seattle Center
09:02PM 42.2375 -122.0603 351° North 324 373 30,000  Level Seattle Center
09:03PM 42.3258 -122.0803 350° North 322 371 30,000  Level Seattle Center
09:04PM 42.4139 -122.1000 351° North 322 371 30,000  Level Seattle Center
09:05PM 42.5028 -122.1206 350° North 323 372 30,000  Level Seattle Center
09:06PM 42.5908 -122.1408 350° North 323 372 30,000  Level Seattle Center
09:07PM 42.6789 -122.1611 350° North 323 372 30,000  Level Seattle Center
09:08PM 42.7678 -122.1817 350° North 325 374 30,000  Level Seattle Center
09:09PM 42.8564 -122.2014 351° North 326 375 30,000  Level Seattle Center
09:10PM 42.9486 -122.2222 351° North 320 368 30,000  Level Seattle Center
09:11PM 43.0350 -122.2414 351° North 316 364 30,000  Level Seattle Center
09:12PM 43.1217 -122.2617 350° North 315 362 30,000  Level Seattle Center
09:13PM 43.2081 -122.2817 350° North 314 361 30,000  Level Seattle Center
09:14PM 43.2939 -122.3008 351° North 314 361 30,000  Level Seattle Center
09:15PM 43.3792 -122.3214 350° North 312 359 30,000  Level Seattle Center
09:16PM 43.4650 -122.3411 351° North 313 360 30,000  Level Seattle Center
09:17PM 43.5508 -122.3597 351° North 315 362 30,000  Level Seattle Center
09:18PM 43.6378 -122.3808 350° North 318 366 30,000  Level Seattle Center
09:19PM 43.7242 -122.4014 350° North 316 364 30,000 -300 Level Seattle Center
09:20PM 43.8100 -122.4242 349° North 316 364 29,500 -1,440 Descending Seattle Center
09:21PM 43.9222 -122.4569 348° North 345 397 27,200 -2,160 Descending Seattle Center
09:22PM 44.0125 -122.4844 348° North 336 387 25,200 -1,980 Descending Seattle Center
09:23PM 44.1000 -122.5108 348° North 327 376 23,200 -1,980 Descending Seattle Center
09:25PM 44.1856 -122.5381 347° North 317 365 21,200 -1,980 Descending Seattle Center
09:26PM 44.2686 -122.5644 347° North 309 356 19,200 -1,980 Descending Seattle Center
09:27PM 44.3539 -122.5908 348° North 313 360 17,200 -1,920 Descending Seattle Center
09:28PM 44.4422 -122.6197 347° North 325 374 15,300 -1,920 Descending Seattle Center
09:29PM 44.5367 -122.6494 347° North 325 374 13,300 -1,800 Descending Seattle Center
09:30PM 44.6211 -122.6756 348° North 315 362 11,700 -1,620 Descending Seattle Center
09:31PM 44.7039 -122.7033 347° North 310 357 10,100 -1,560 Descending Seattle Center
09:32PM 44.7792 -122.7258 348° North 281 323 8,600 -1,560 Descending Seattle Center
09:32PM 44.8189 -122.7400 346° North 273 314 7,800 -1,620 Descending Seattle Center
09:32PM 44.8400 -122.7469 347° North 272 313 7,400 -1,140 Descending Seattle Center
09:33PM 44.8514 -122.7489 353° North 271 312 7,200 -1,320 Descending Seattle Center
09:33PM 44.9006 -122.7681 345° North 241 277 6,200 -1,320 Descending Seattle Center
09:34PM 44.9153 -122.7689 358° North 241 277 5,900 -1,020 Descending Seattle Center
09:34PM 44.9581 -122.7847 345° North 210 242 5,100 -1,020 Descending Seattle Center
09:35PM 44.9667 -122.7856 356° North 193 222 4,900 -1,140 Descending Seattle Center
09:35PM 45.0108 -122.8003 347° North 207 238 4,000 -1,140 Descending Seattle Center
09:36PM 45.0225 -122.8033 350° North 206 237 3,800 -1,020 Descending Seattle Center
09:36PM 45.0636 -122.8036 360° North 200 230 3,100 -840 Descending Seattle Center
09:37PM 45.0744 -122.8008 10° North 187 215 3,000 -300 Descending Seattle Center